Pikesville, MD

6:39 PM EST on January 27, 2015 (GMT -0500)
Mt. Washington | Change Station
CLOSE
Current Station
Personal Weather Station
Location: Baltimore, MD
Elevation: 377 ft
Nearby Weather Stations

Elev 377 ft 39.37 °N, 76.66 °W | Updated 12 seconds ago

Partly Cloudy
Partly Cloudy
29.8 °F
Feels Like 26 °F
N
3.6
Wind Variable Wind from WNW
Gusts 4.9 mph

Today
High -- | Low -- °F
--% Chance of Precip.
Yesterday
High -- | Low -- °F
Precip. -- in
7:18 AM 5:21 PM
First Quarter, 58% visible
Pressure 29.83 in
Visibility 10.0 miles
Clouds Few 6000 ft
Scattered Clouds 16000 ft
Scattered Clouds 25000 ft
Windchill 26 °F
Dew Point 17 °F
Humidity 58%
Rainfall 0.05 in
Snow Depth Not available.
UV 0.0 out of 12
Pollen .10 out of 12
Air Quality Not available.
Flu Activity Not available.
METAR KBWI 272254Z 30010G22KT 10SM FEW060 SCT160 SCT250 M01/M06 A2982 RMK AO2 SLP099 VIRGA W T10061061

More Conditions Fewer Conditions

Pressure 29.83 in
Visibility 10.0 miles
Clouds Few 6000 ft
Scattered Clouds 16000 ft
Scattered Clouds 25000 ft
Windchill 26 °F
Dew Point 17 °F
Humidity 58%
Rainfall 0.05 in
Snow Depth Not available.
UV 0.0 out of 12
Pollen .10 out of 12
Air Quality Not available.
Flu Activity Not available.
METAR KBWI 272254Z 30010G22KT 10SM FEW060 SCT160 SCT250 M01/M06 A2982 RMK AO2 SLP099 VIRGA W T10061061

More Conditions Fewer Conditions

10-Day Weather Forecast

Almanac

Astronomy

Jan. 27, 2015 Rise Set
Actual Time
Civil Twilight
Nautical Twilight
Astronomical Twilight
Moon
Length of Visible Light
Length of Day
Tomorrow will be .
, % of the Moon is Illuminated

Today's Extremes

State Highs State Lows

Community

WunderPhotos

Upload Photos

1,790,982 photos uploaded!

WunderBlogs® & News

Nearby

Air Quality

  Air Quality AQ Index Pollutant
Not available.

Snow Depth

Station Depth Elevation

Earthquake Activity

City Distance Mag. Time & Date
Minimum magnitude displayed is 2.5.

Coastal Water Temperatures

Place Temperature

Nearby Weather Stations